sensor_id;sensor_type;location;lat;lon;timestamp;P1;durP1;ratioP1;P2;durP2;ratioP2
41903;SDS011;27586;51.124;4.182;2022-07-29T00:00:50;0.70;;;0.60;;
41903;SDS011;27586;51.124;4.182;2022-07-29T00:03:16;0.60;;;0.60;;
41903;SDS011;27586;51.124;4.182;2022-07-29T00:05:42;0.68;;;0.60;;
41903;SDS011;27586;51.124;4.182;2022-07-29T00:08:08;0.70;;;0.70;;
41903;SDS011;27586;51.124;4.182;2022-07-29T00:10:40;0.85;;;0.55;;
41903;SDS011;27586;51.124;4.182;2022-07-29T00:13:16;0.95;;;0.70;;
41903;SDS011;27586;51.124;4.182;2022-07-29T00:15:42;0.80;;;0.70;;
41903;SDS011;27586;51.124;4.182;2022-07-29T00:18:10;2.22;;;0.90;;
41903;SDS011;27586;51.124;4.182;2022-07-29T00:20:36;1.35;;;0.98;;
41903;SDS011;27586;51.124;4.182;2022-07-29T00:23:02;1.80;;;1.08;;
41903;SDS011;27586;51.124;4.182;2022-07-29T00:25:28;0.70;;;0.70;;
41903;SDS011;27586;51.124;4.182;2022-07-29T00:27:53;0.85;;;0.82;;
41903;SDS011;27586;51.124;4.182;2022-07-29T00:30:19;0.80;;;0.65;;
41903;SDS011;27586;51.124;4.182;2022-07-29T00:32:45;0.65;;;0.65;;
41903;SDS011;27586;51.124;4.182;2022-07-29T00:35:10;1.58;;;0.90;;
41903;SDS011;27586;51.124;4.182;2022-07-29T00:37:55;1.50;;;0.88;;
41903;SDS011;27586;51.124;4.182;2022-07-29T00:40:20;1.10;;;0.73;;
41903;SDS011;27586;51.124;4.182;2022-07-29T00:42:47;0.85;;;0.82;;
41903;SDS011;27586;51.124;4.182;2022-07-29T00:45:15;0.95;;;0.95;;
41903;SDS011;27586;51.124;4.182;2022-07-29T00:47:41;0.77;;;0.73;;
41903;SDS011;27586;51.124;4.182;2022-07-29T00:50:08;0.80;;;0.80;;
41903;SDS011;27586;51.124;4.182;2022-07-29T00:52:35;1.25;;;0.73;;
41903;SDS011;27586;51.124;4.182;2022-07-29T00:55:03;0.90;;;0.90;;
41903;SDS011;27586;51.124;4.182;2022-07-29T00:57:29;1.13;;;0.90;;
41903;SDS011;27586;51.124;4.182;2022-07-29T00:59:55;1.48;;;1.08;;
41903;SDS011;27586;51.124;4.182;2022-07-29T01:02:21;1.30;;;0.90;;
41903;SDS011;27586;51.124;4.182;2022-07-29T01:04:50;0.80;;;0.80;;
41903;SDS011;27586;51.124;4.182;2022-07-29T01:07:16;0.70;;;0.70;;
41903;SDS011;27586;51.124;4.182;2022-07-29T01:09:43;0.80;;;0.60;;
41903;SDS011;27586;51.124;4.182;2022-07-29T01:12:33;0.85;;;0.77;;
41903;SDS011;27586;51.124;4.182;2022-07-29T01:15:01;1.13;;;0.80;;
41903;SDS011;27586;51.124;4.182;2022-07-29T01:17:31;0.65;;;0.50;;
41903;SDS011;27586;51.124;4.182;2022-07-29T01:20:14;0.60;;;0.60;;
41903;SDS011;27586;51.124;4.182;2022-07-29T01:25:30;0.82;;;0.80;;
41903;SDS011;27586;51.124;4.182;2022-07-29T01:30:32;0.82;;;0.77;;
41903;SDS011;27586;51.124;4.182;2022-07-29T01:33:09;1.23;;;0.70;;
41903;SDS011;27586;51.124;4.182;2022-07-29T01:35:58;0.40;;;0.40;;
41903;SDS011;27586;51.124;4.182;2022-07-29T01:38:26;0.50;;;0.50;;
41903;SDS011;27586;51.124;4.182;2022-07-29T01:41:02;1.65;;;1.05;;
41903;SDS011;27586;51.124;4.182;2022-07-29T01:44:17;0.77;;;0.47;;
41903;SDS011;27586;51.124;4.182;2022-07-29T01:46:35;0.52;;;0.52;;
41903;SDS011;27586;51.124;4.182;2022-07-29T01:49:14;0.93;;;0.77;;
41903;SDS011;27586;51.124;4.182;2022-07-29T01:54:23;0.60;;;0.60;;
41903;SDS011;27586;51.124;4.182;2022-07-29T01:56:51;0.90;;;0.52;;
41903;SDS011;27586;51.124;4.182;2022-07-29T01:59:18;1.10;;;0.70;;
41903;SDS011;27586;51.124;4.182;2022-07-29T02:01:50;0.60;;;0.60;;
41903;SDS011;27586;51.124;4.182;2022-07-29T02:04:20;1.05;;;0.47;;
41903;SDS011;27586;51.124;4.182;2022-07-29T02:06:48;0.68;;;0.68;;
41903;SDS011;27586;51.124;4.182;2022-07-29T02:09:16;0.50;;;0.50;;
41903;SDS011;27586;51.124;4.182;2022-07-29T02:11:47;0.75;;;0.70;;
41903;SDS011;27586;51.124;4.182;2022-07-29T02:14:17;0.52;;;0.50;;
41903;SDS011;27586;51.124;4.182;2022-07-29T02:16:45;2.90;;;0.70;;
41903;SDS011;27586;51.124;4.182;2022-07-29T02:19:13;1.85;;;0.85;;
41903;SDS011;27586;51.124;4.182;2022-07-29T02:21:42;0.45;;;0.45;;
41903;SDS011;27586;51.124;4.182;2022-07-29T02:24:09;0.60;;;0.60;;
41903;SDS011;27586;51.124;4.182;2022-07-29T02:26:37;0.60;;;0.60;;
41903;SDS011;27586;51.124;4.182;2022-07-29T02:29:07;1.30;;;0.50;;
41903;SDS011;27586;51.124;4.182;2022-07-29T02:31:34;0.60;;;0.60;;
41903;SDS011;27586;51.124;4.182;2022-07-29T02:34:03;0.60;;;0.60;;
41903;SDS011;27586;51.124;4.182;2022-07-29T02:36:34;0.73;;;0.50;;
41903;SDS011;27586;51.124;4.182;2022-07-29T02:39:00;0.70;;;0.70;;
41903;SDS011;27586;51.124;4.182;2022-07-29T02:43:58;0.65;;;0.50;;
41903;SDS011;27586;51.124;4.182;2022-07-29T02:46:33;0.52;;;0.47;;
41903;SDS011;27586;51.124;4.182;2022-07-29T02:52:02;1.30;;;0.60;;
41903;SDS011;27586;51.124;4.182;2022-07-29T02:54:47;0.57;;;0.57;;
41903;SDS011;27586;51.124;4.182;2022-07-29T02:57:22;0.57;;;0.52;;
41903;SDS011;27586;51.124;4.182;2022-07-29T02:59:52;0.55;;;0.55;;
41903;SDS011;27586;51.124;4.182;2022-07-29T03:02:27;1.27;;;0.75;;
41903;SDS011;27586;51.124;4.182;2022-07-29T03:04:56;0.82;;;0.60;;
41903;SDS011;27586;51.124;4.182;2022-07-29T03:07:24;1.25;;;1.15;;
41903;SDS011;27586;51.124;4.182;2022-07-29T03:09:50;0.70;;;0.70;;
41903;SDS011;27586;51.124;4.182;2022-07-29T03:12:16;0.70;;;0.70;;
41903;SDS011;27586;51.124;4.182;2022-07-29T03:14:45;0.93;;;0.80;;
41903;SDS011;27586;51.124;4.182;2022-07-29T03:17:15;0.65;;;0.65;;
41903;SDS011;27586;51.124;4.182;2022-07-29T03:19:41;0.73;;;0.60;;
41903;SDS011;27586;51.124;4.182;2022-07-29T03:22:07;0.57;;;0.57;;
41903;SDS011;27586;51.124;4.182;2022-07-29T03:24:34;1.08;;;0.88;;
41903;SDS011;27586;51.124;4.182;2022-07-29T03:27:02;0.60;;;0.60;;
41903;SDS011;27586;51.124;4.182;2022-07-29T03:29:29;0.73;;;0.52;;
41903;SDS011;27586;51.124;4.182;2022-07-29T03:31:55;0.43;;;0.43;;
41903;SDS011;27586;51.124;4.182;2022-07-29T03:34:21;0.80;;;0.70;;
41903;SDS011;27586;51.124;4.182;2022-07-29T03:36:47;1.35;;;0.77;;
41903;SDS011;27586;51.124;4.182;2022-07-29T03:39:15;0.73;;;0.63;;
41903;SDS011;27586;51.124;4.182;2022-07-29T03:41:44;0.70;;;0.70;;
41903;SDS011;27586;51.124;4.182;2022-07-29T03:44:15;0.95;;;0.70;;
41903;SDS011;27586;51.124;4.182;2022-07-29T03:46:42;1.13;;;0.60;;
41903;SDS011;27586;51.124;4.182;2022-07-29T03:49:10;0.82;;;0.82;;
41903;SDS011;27586;51.124;4.182;2022-07-29T03:51:37;0.60;;;0.60;;
41903;SDS011;27586;51.124;4.182;2022-07-29T03:54:03;0.80;;;0.80;;
41903;SDS011;27586;51.124;4.182;2022-07-29T03:56:31;1.15;;;0.80;;
41903;SDS011;27586;51.124;4.182;2022-07-29T03:58:59;0.77;;;0.77;;
41903;SDS011;27586;51.124;4.182;2022-07-29T04:01:33;0.95;;;0.70;;
41903;SDS011;27586;51.124;4.182;2022-07-29T04:04:00;0.80;;;0.75;;
41903;SDS011;27586;51.124;4.182;2022-07-29T04:06:28;0.70;;;0.70;;
41903;SDS011;27586;51.124;4.182;2022-07-29T04:08:56;0.70;;;0.70;;
41903;SDS011;27586;51.124;4.182;2022-07-29T04:11:21;1.75;;;1.00;;
41903;SDS011;27586;51.124;4.182;2022-07-29T04:13:50;0.98;;;0.85;;
41903;SDS011;27586;51.124;4.182;2022-07-29T04:16:15;0.65;;;0.63;;
41903;SDS011;27586;51.124;4.182;2022-07-29T04:18:41;0.80;;;0.80;;
41903;SDS011;27586;51.124;4.182;2022-07-29T04:21:07;1.20;;;0.93;;
41903;SDS011;27586;51.124;4.182;2022-07-29T04:23:33;0.60;;;0.60;;
41903;SDS011;27586;51.124;4.182;2022-07-29T04:26:02;0.75;;;0.57;;
41903;SDS011;27586;51.124;4.182;2022-07-29T04:28:28;1.00;;;0.80;;
41903;SDS011;27586;51.124;4.182;2022-07-29T04:30:54;0.75;;;0.75;;
41903;SDS011;27586;51.124;4.182;2022-07-29T04:33:19;0.85;;;0.80;;
41903;SDS011;27586;51.124;4.182;2022-07-29T04:35:45;1.40;;;0.90;;
41903;SDS011;27586;51.124;4.182;2022-07-29T04:38:10;0.93;;;0.68;;
41903;SDS011;27586;51.124;4.182;2022-07-29T04:40:36;0.98;;;0.85;;
41903;SDS011;27586;51.124;4.182;2022-07-29T04:43:02;1.60;;;0.80;;
41903;SDS011;27586;51.124;4.182;2022-07-29T04:45:27;1.27;;;1.00;;
41903;SDS011;27586;51.124;4.182;2022-07-29T04:47:54;0.63;;;0.60;;
41903;SDS011;27586;51.124;4.182;2022-07-29T04:50:20;1.02;;;0.70;;
41903;SDS011;27586;51.124;4.182;2022-07-29T04:52:47;0.80;;;0.80;;
41903;SDS011;27586;51.124;4.182;2022-07-29T04:55:12;0.70;;;0.70;;
41903;SDS011;27586;51.124;4.182;2022-07-29T04:57:38;0.90;;;0.82;;
41903;SDS011;27586;51.124;4.182;2022-07-29T05:00:04;1.02;;;0.90;;
41903;SDS011;27586;51.124;4.182;2022-07-29T05:02:31;1.10;;;0.90;;
41903;SDS011;27586;51.124;4.182;2022-07-29T05:04:56;1.60;;;1.10;;
41903;SDS011;27586;51.124;4.182;2022-07-29T05:07:22;0.70;;;0.70;;
41903;SDS011;27586;51.124;4.182;2022-07-29T05:09:52;1.88;;;0.80;;
41903;SDS011;27586;51.124;4.182;2022-07-29T05:12:18;0.70;;;0.70;;
41903;SDS011;27586;51.124;4.182;2022-07-29T05:14:43;0.90;;;0.90;;
41903;SDS011;27586;51.124;4.182;2022-07-29T05:17:09;0.68;;;0.68;;
41903;SDS011;27586;51.124;4.182;2022-07-29T05:19:35;0.65;;;0.65;;
41903;SDS011;27586;51.124;4.182;2022-07-29T05:22:00;0.82;;;0.75;;
41903;SDS011;27586;51.124;4.182;2022-07-29T05:24:26;0.80;;;0.77;;
41903;SDS011;27586;51.124;4.182;2022-07-29T05:26:52;1.40;;;0.95;;
41903;SDS011;27586;51.124;4.182;2022-07-29T05:29:18;0.85;;;0.70;;
41903;SDS011;27586;51.124;4.182;2022-07-29T05:31:43;1.13;;;0.90;;
41903;SDS011;27586;51.124;4.182;2022-07-29T05:34:09;0.90;;;0.75;;
41903;SDS011;27586;51.124;4.182;2022-07-29T05:36:34;1.13;;;0.98;;
41903;SDS011;27586;51.124;4.182;2022-07-29T05:39:00;1.17;;;0.77;;
41903;SDS011;27586;51.124;4.182;2022-07-29T05:41:27;1.70;;;1.10;;
41903;SDS011;27586;51.124;4.182;2022-07-29T05:43:53;1.60;;;0.80;;
41903;SDS011;27586;51.124;4.182;2022-07-29T05:46:21;1.98;;;1.02;;
41903;SDS011;27586;51.124;4.182;2022-07-29T05:48:47;1.10;;;0.90;;
41903;SDS011;27586;51.124;4.182;2022-07-29T05:51:12;2.08;;;1.02;;
41903;SDS011;27586;51.124;4.182;2022-07-29T05:53:38;1.27;;;1.17;;
41903;SDS011;27586;51.124;4.182;2022-07-29T05:56:04;1.13;;;0.80;;
41903;SDS011;27586;51.124;4.182;2022-07-29T05:58:30;0.73;;;0.70;;
41903;SDS011;27586;51.124;4.182;2022-07-29T06:00:56;1.45;;;0.88;;
41903;SDS011;27586;51.124;4.182;2022-07-29T06:03:25;1.33;;;0.82;;
41903;SDS011;27586;51.124;4.182;2022-07-29T06:05:51;1.00;;;0.90;;
41903;SDS011;27586;51.124;4.182;2022-07-29T06:08:17;1.48;;;0.90;;
41903;SDS011;27586;51.124;4.182;2022-07-29T06:10:42;1.23;;;1.10;;
41903;SDS011;27586;51.124;4.182;2022-07-29T06:13:08;1.20;;;1.10;;
41903;SDS011;27586;51.124;4.182;2022-07-29T06:15:34;1.67;;;1.00;;
41903;SDS011;27586;51.124;4.182;2022-07-29T06:18:00;1.10;;;1.00;;
41903;SDS011;27586;51.124;4.182;2022-07-29T06:20:26;1.20;;;1.10;;
41903;SDS011;27586;51.124;4.182;2022-07-29T06:22:55;0.80;;;0.80;;
41903;SDS011;27586;51.124;4.182;2022-07-29T06:25:21;1.10;;;0.98;;
41903;SDS011;27586;51.124;4.182;2022-07-29T06:27:47;1.63;;;1.40;;
41903;SDS011;27586;51.124;4.182;2022-07-29T06:30:13;1.38;;;1.15;;
41903;SDS011;27586;51.124;4.182;2022-07-29T06:32:38;1.50;;;1.38;;
41903;SDS011;27586;51.124;4.182;2022-07-29T06:35:04;1.10;;;1.00;;
41903;SDS011;27586;51.124;4.182;2022-07-29T06:37:30;1.13;;;1.02;;
41903;SDS011;27586;51.124;4.182;2022-07-29T06:39:56;2.13;;;1.40;;
41903;SDS011;27586;51.124;4.182;2022-07-29T06:42:44;1.35;;;1.20;;
41903;SDS011;27586;51.124;4.182;2022-07-29T06:45:12;1.35;;;1.25;;
41903;SDS011;27586;51.124;4.182;2022-07-29T06:47:38;1.90;;;1.27;;
41903;SDS011;27586;51.124;4.182;2022-07-29T06:50:04;1.40;;;1.30;;
41903;SDS011;27586;51.124;4.182;2022-07-29T06:52:30;1.80;;;1.35;;
41903;SDS011;27586;51.124;4.182;2022-07-29T06:54:56;2.00;;;1.58;;
41903;SDS011;27586;51.124;4.182;2022-07-29T06:57:22;1.40;;;1.30;;
41903;SDS011;27586;51.124;4.182;2022-07-29T06:59:47;1.42;;;1.15;;
41903;SDS011;27586;51.124;4.182;2022-07-29T07:02:13;2.10;;;1.30;;
41903;SDS011;27586;51.124;4.182;2022-07-29T07:04:39;1.40;;;1.15;;
41903;SDS011;27586;51.124;4.182;2022-07-29T07:07:05;1.08;;;1.00;;
41903;SDS011;27586;51.124;4.182;2022-07-29T07:09:30;1.30;;;1.20;;
41903;SDS011;27586;51.124;4.182;2022-07-29T07:11:56;2.35;;;1.10;;
41903;SDS011;27586;51.124;4.182;2022-07-29T07:14:22;2.63;;;1.30;;
41903;SDS011;27586;51.124;4.182;2022-07-29T07:16:47;3.17;;;1.27;;
41903;SDS011;27586;51.124;4.182;2022-07-29T07:19:13;1.70;;;1.10;;
41903;SDS011;27586;51.124;4.182;2022-07-29T07:21:39;1.35;;;1.13;;
41903;SDS011;27586;51.124;4.182;2022-07-29T07:24:05;1.63;;;1.30;;
41903;SDS011;27586;51.124;4.182;2022-07-29T07:26:31;1.27;;;1.17;;
41903;SDS011;27586;51.124;4.182;2022-07-29T07:28:57;2.20;;;1.48;;
41903;SDS011;27586;51.124;4.182;2022-07-29T07:31:22;1.40;;;1.20;;
41903;SDS011;27586;51.124;4.182;2022-07-29T07:33:48;2.15;;;1.17;;
41903;SDS011;27586;51.124;4.182;2022-07-29T07:36:14;1.33;;;1.02;;
41903;SDS011;27586;51.124;4.182;2022-07-29T07:38:39;2.28;;;1.30;;
41903;SDS011;27586;51.124;4.182;2022-07-29T07:41:05;1.23;;;1.10;;
41903;SDS011;27586;51.124;4.182;2022-07-29T07:43:31;1.50;;;1.40;;
41903;SDS011;27586;51.124;4.182;2022-07-29T07:45:56;2.97;;;1.67;;
41903;SDS011;27586;51.124;4.182;2022-07-29T07:48:22;2.10;;;1.55;;
41903;SDS011;27586;51.124;4.182;2022-07-29T07:50:48;1.65;;;1.20;;
41903;SDS011;27586;51.124;4.182;2022-07-29T07:53:14;1.40;;;1.30;;
41903;SDS011;27586;51.124;4.182;2022-07-29T07:55:41;1.25;;;1.13;;
41903;SDS011;27586;51.124;4.182;2022-07-29T07:58:08;1.42;;;1.30;;
41903;SDS011;27586;51.124;4.182;2022-07-29T08:00:34;2.00;;;1.40;;
41903;SDS011;27586;51.124;4.182;2022-07-29T08:03:00;1.58;;;1.25;;
41903;SDS011;27586;51.124;4.182;2022-07-29T08:05:25;1.98;;;1.30;;
41903;SDS011;27586;51.124;4.182;2022-07-29T08:07:51;2.10;;;1.58;;
41903;SDS011;27586;51.124;4.182;2022-07-29T08:10:18;2.20;;;1.48;;
41903;SDS011;27586;51.124;4.182;2022-07-29T08:13:07;2.03;;;1.30;;
41903;SDS011;27586;51.124;4.182;2022-07-29T08:15:35;1.58;;;1.20;;
41903;SDS011;27586;51.124;4.182;2022-07-29T08:18:03;1.65;;;1.40;;
41903;SDS011;27586;51.124;4.182;2022-07-29T08:20:29;2.50;;;1.60;;
41903;SDS011;27586;51.124;4.182;2022-07-29T08:22:56;1.58;;;1.35;;
41903;SDS011;27586;51.124;4.182;2022-07-29T08:25:22;2.67;;;1.30;;
41903;SDS011;27586;51.124;4.182;2022-07-29T08:27:48;1.73;;;1.33;;
41903;SDS011;27586;51.124;4.182;2022-07-29T08:30:14;2.28;;;1.52;;
41903;SDS011;27586;51.124;4.182;2022-07-29T08:32:40;2.35;;;1.33;;
41903;SDS011;27586;51.124;4.182;2022-07-29T08:35:05;2.38;;;1.70;;
41903;SDS011;27586;51.124;4.182;2022-07-29T08:37:31;2.13;;;1.58;;
41903;SDS011;27586;51.124;4.182;2022-07-29T08:39:57;1.63;;;1.25;;
41903;SDS011;27586;51.124;4.182;2022-07-29T08:42:22;1.75;;;1.60;;
41903;SDS011;27586;51.124;4.182;2022-07-29T08:44:48;2.80;;;1.38;;
41903;SDS011;27586;51.124;4.182;2022-07-29T08:47:15;1.70;;;1.20;;
41903;SDS011;27586;51.124;4.182;2022-07-29T08:49:42;1.35;;;1.20;;
41903;SDS011;27586;51.124;4.182;2022-07-29T08:52:10;1.98;;;1.20;;
41903;SDS011;27586;51.124;4.182;2022-07-29T08:54:36;1.38;;;1.20;;
41903;SDS011;27586;51.124;4.182;2022-07-29T08:57:03;1.17;;;1.08;;
41903;SDS011;27586;51.124;4.182;2022-07-29T08:59:29;2.13;;;1.30;;
41903;SDS011;27586;51.124;4.182;2022-07-29T09:01:59;1.05;;;1.02;;
41903;SDS011;27586;51.124;4.182;2022-07-29T09:04:32;1.88;;;1.25;;
41903;SDS011;27586;51.124;4.182;2022-07-29T09:07:00;1.20;;;1.10;;
41903;SDS011;27586;51.124;4.182;2022-07-29T09:09:29;1.63;;;1.33;;
41903;SDS011;27586;51.124;4.182;2022-07-29T09:11:55;1.30;;;1.20;;
41903;SDS011;27586;51.124;4.182;2022-07-29T09:14:21;2.28;;;1.10;;
41903;SDS011;27586;51.124;4.182;2022-07-29T09:16:51;1.15;;;1.00;;
41903;SDS011;27586;51.124;4.182;2022-07-29T09:19:22;1.15;;;1.05;;
41903;SDS011;27586;51.124;4.182;2022-07-29T09:21:50;2.65;;;1.50;;
41903;SDS011;27586;51.124;4.182;2022-07-29T09:24:25;1.00;;;0.90;;
41903;SDS011;27586;51.124;4.182;2022-07-29T09:26:51;0.80;;;0.80;;
41903;SDS011;27586;51.124;4.182;2022-07-29T09:29:18;1.00;;;0.90;;
41903;SDS011;27586;51.124;4.182;2022-07-29T09:31:50;0.82;;;0.80;;
41903;SDS011;27586;51.124;4.182;2022-07-29T09:34:21;0.85;;;0.85;;
41903;SDS011;27586;51.124;4.182;2022-07-29T09:36:49;0.80;;;0.70;;
41903;SDS011;27586;51.124;4.182;2022-07-29T09:39:16;1.50;;;1.05;;
41903;SDS011;27586;51.124;4.182;2022-07-29T09:41:56;1.58;;;0.98;;
41903;SDS011;27586;51.124;4.182;2022-07-29T09:44:23;1.50;;;0.90;;
41903;SDS011;27586;51.124;4.182;2022-07-29T09:46:57;1.33;;;0.77;;
41903;SDS011;27586;51.124;4.182;2022-07-29T09:49:23;0.90;;;0.68;;
41903;SDS011;27586;51.124;4.182;2022-07-29T09:52:23;1.05;;;0.80;;
41903;SDS011;27586;51.124;4.182;2022-07-29T09:54:41;0.70;;;0.60;;
41903;SDS011;27586;51.124;4.182;2022-07-29T09:57:07;0.82;;;0.75;;
41903;SDS011;27586;51.124;4.182;2022-07-29T09:59:55;1.45;;;0.60;;
41903;SDS011;27586;51.124;4.182;2022-07-29T10:02:22;0.75;;;0.70;;
41903;SDS011;27586;51.124;4.182;2022-07-29T10:04:53;2.15;;;0.80;;
41903;SDS011;27586;51.124;4.182;2022-07-29T10:07:19;0.77;;;0.65;;
41903;SDS011;27586;51.124;4.182;2022-07-29T10:09:54;0.60;;;0.60;;
41903;SDS011;27586;51.124;4.182;2022-07-29T10:12:22;1.30;;;0.60;;
41903;SDS011;27586;51.124;4.182;2022-07-29T10:14:48;0.60;;;0.50;;
41903;SDS011;27586;51.124;4.182;2022-07-29T10:17:15;0.70;;;0.70;;
41903;SDS011;27586;51.124;4.182;2022-07-29T10:19:41;0.75;;;0.73;;
41903;SDS011;27586;51.124;4.182;2022-07-29T10:22:09;0.60;;;0.60;;
41903;SDS011;27586;51.124;4.182;2022-07-29T10:24:36;0.95;;;0.50;;
41903;SDS011;27586;51.124;4.182;2022-07-29T10:27:06;0.50;;;0.50;;
41903;SDS011;27586;51.124;4.182;2022-07-29T10:29:33;0.57;;;0.57;;
41903;SDS011;27586;51.124;4.182;2022-07-29T10:32:07;0.55;;;0.55;;
41903;SDS011;27586;51.124;4.182;2022-07-29T10:43:22;1.30;;;1.10;;
41903;SDS011;27586;51.124;4.182;2022-07-29T10:45:55;0.80;;;0.80;;
41903;SDS011;27586;51.124;4.182;2022-07-29T10:48:23;1.63;;;0.93;;
41903;SDS011;27586;51.124;4.182;2022-07-29T10:50:59;1.33;;;0.80;;
41903;SDS011;27586;51.124;4.182;2022-07-29T10:53:45;1.88;;;0.70;;
41903;SDS011;27586;51.124;4.182;2022-07-29T10:56:25;0.70;;;0.70;;
41903;SDS011;27586;51.124;4.182;2022-07-29T10:59:38;0.60;;;0.60;;
41903;SDS011;27586;51.124;4.182;2022-07-29T11:01:51;0.70;;;0.70;;
41903;SDS011;27586;51.124;4.182;2022-07-29T11:07:08;1.17;;;0.90;;
41903;SDS011;27586;51.124;4.182;2022-07-29T11:09:34;0.90;;;0.80;;
41903;SDS011;27586;51.124;4.182;2022-07-29T11:12:00;1.67;;;0.55;;
41903;SDS011;27586;51.124;4.182;2022-07-29T11:17:16;2.05;;;0.70;;
41903;SDS011;27586;51.124;4.182;2022-07-29T11:19:42;2.42;;;0.60;;
41903;SDS011;27586;51.124;4.182;2022-07-29T11:22:09;1.70;;;0.90;;
41903;SDS011;27586;51.124;4.182;2022-07-29T11:24:36;0.90;;;0.70;;
41903;SDS011;27586;51.124;4.182;2022-07-29T11:29:51;0.80;;;0.73;;
41903;SDS011;27586;51.124;4.182;2022-07-29T11:32:22;1.38;;;0.82;;
41903;SDS011;27586;51.124;4.182;2022-07-29T11:34:49;1.50;;;0.90;;
41903;SDS011;27586;51.124;4.182;2022-07-29T11:37:35;0.60;;;0.60;;
41903;SDS011;27586;51.124;4.182;2022-07-29T11:47:34;1.70;;;0.70;;
41903;SDS011;27586;51.124;4.182;2022-07-29T11:50:05;0.77;;;0.77;;
41903;SDS011;27586;51.124;4.182;2022-07-29T11:52:37;1.13;;;0.75;;
41903;SDS011;27586;51.124;4.182;2022-07-29T11:55:08;0.50;;;0.50;;
41903;SDS011;27586;51.124;4.182;2022-07-29T11:57:36;0.70;;;0.70;;
41903;SDS011;27586;51.124;4.182;2022-07-29T12:00:03;0.63;;;0.63;;
41903;SDS011;27586;51.124;4.182;2022-07-29T12:02:41;1.15;;;0.50;;
41903;SDS011;27586;51.124;4.182;2022-07-29T12:05:08;0.88;;;0.88;;
41903;SDS011;27586;51.124;4.182;2022-07-29T12:07:36;0.70;;;0.70;;
41903;SDS011;27586;51.124;4.182;2022-07-29T12:10:03;0.90;;;0.70;;
41903;SDS011;27586;51.124;4.182;2022-07-29T12:12:33;0.57;;;0.57;;
41903;SDS011;27586;51.124;4.182;2022-07-29T12:17:46;0.98;;;0.77;;
41903;SDS011;27586;51.124;4.182;2022-07-29T12:20:12;1.27;;;0.70;;
41903;SDS011;27586;51.124;4.182;2022-07-29T12:22:39;0.70;;;0.70;;
41903;SDS011;27586;51.124;4.182;2022-07-29T12:25:10;0.90;;;0.80;;
41903;SDS011;27586;51.124;4.182;2022-07-29T12:27:39;0.52;;;0.50;;
41903;SDS011;27586;51.124;4.182;2022-07-29T12:30:06;0.70;;;0.70;;
41903;SDS011;27586;51.124;4.182;2022-07-29T12:37:37;0.63;;;0.60;;
41903;SDS011;27586;51.124;4.182;2022-07-29T12:40:04;0.50;;;0.50;;
41903;SDS011;27586;51.124;4.182;2022-07-29T12:42:32;0.85;;;0.63;;
41903;SDS011;27586;51.124;4.182;2022-07-29T12:44:58;0.80;;;0.70;;
41903;SDS011;27586;51.124;4.182;2022-07-29T12:47:24;0.60;;;0.60;;
41903;SDS011;27586;51.124;4.182;2022-07-29T12:49:51;0.68;;;0.60;;
41903;SDS011;27586;51.124;4.182;2022-07-29T12:52:36;0.85;;;0.70;;
41903;SDS011;27586;51.124;4.182;2022-07-29T12:55:01;0.70;;;0.70;;
41903;SDS011;27586;51.124;4.182;2022-07-29T12:57:29;0.80;;;0.77;;
41903;SDS011;27586;51.124;4.182;2022-07-29T13:02:30;0.70;;;0.70;;
41903;SDS011;27586;51.124;4.182;2022-07-29T13:04:56;1.10;;;1.00;;
41903;SDS011;27586;51.124;4.182;2022-07-29T13:07:24;2.15;;;0.95;;
41903;SDS011;27586;51.124;4.182;2022-07-29T13:09:52;1.35;;;0.82;;
41903;SDS011;27586;51.124;4.182;2022-07-29T13:12:18;1.13;;;0.95;;
41903;SDS011;27586;51.124;4.182;2022-07-29T13:14:47;1.63;;;0.80;;
41903;SDS011;27586;51.124;4.182;2022-07-29T13:17:14;0.80;;;0.80;;
41903;SDS011;27586;51.124;4.182;2022-07-29T13:19:52;0.77;;;0.77;;
41903;SDS011;27586;51.124;4.182;2022-07-29T13:22:33;1.05;;;0.95;;
41903;SDS011;27586;51.124;4.182;2022-07-29T13:25:00;0.80;;;0.80;;
41903;SDS011;27586;51.124;4.182;2022-07-29T13:27:27;0.98;;;0.88;;
41903;SDS011;27586;51.124;4.182;2022-07-29T13:29:57;0.77;;;0.70;;
41903;SDS011;27586;51.124;4.182;2022-07-29T13:32:25;1.23;;;1.00;;
41903;SDS011;27586;51.124;4.182;2022-07-29T13:34:52;1.13;;;0.80;;
41903;SDS011;27586;51.124;4.182;2022-07-29T13:37:18;1.00;;;0.80;;
41903;SDS011;27586;51.124;4.182;2022-07-29T13:39:44;1.02;;;0.93;;
41903;SDS011;27586;51.124;4.182;2022-07-29T13:42:10;1.80;;;0.80;;
41903;SDS011;27586;51.124;4.182;2022-07-29T13:44:39;0.75;;;0.75;;
41903;SDS011;27586;51.124;4.182;2022-07-29T13:47:06;1.45;;;0.85;;
41903;SDS011;27586;51.124;4.182;2022-07-29T13:49:33;0.95;;;0.70;;
41903;SDS011;27586;51.124;4.182;2022-07-29T13:51:59;0.95;;;0.75;;
41903;SDS011;27586;51.124;4.182;2022-07-29T13:54:25;0.70;;;0.70;;
41903;SDS011;27586;51.124;4.182;2022-07-29T13:56:50;0.90;;;0.80;;
41903;SDS011;27586;51.124;4.182;2022-07-29T13:59:16;1.73;;;0.70;;
41903;SDS011;27586;51.124;4.182;2022-07-29T14:01:42;2.00;;;0.93;;
41903;SDS011;27586;51.124;4.182;2022-07-29T14:04:08;0.77;;;0.73;;
41903;SDS011;27586;51.124;4.182;2022-07-29T14:06:34;3.13;;;0.82;;
41903;SDS011;27586;51.124;4.182;2022-07-29T14:09:00;0.70;;;0.60;;
41903;SDS011;27586;51.124;4.182;2022-07-29T14:11:26;0.80;;;0.77;;
41903;SDS011;27586;51.124;4.182;2022-07-29T14:13:52;1.00;;;0.80;;
41903;SDS011;27586;51.124;4.182;2022-07-29T14:16:17;0.60;;;0.60;;
41903;SDS011;27586;51.124;4.182;2022-07-29T14:18:43;0.70;;;0.70;;
41903;SDS011;27586;51.124;4.182;2022-07-29T14:21:09;1.38;;;0.90;;
41903;SDS011;27586;51.124;4.182;2022-07-29T14:23:35;1.20;;;1.10;;
41903;SDS011;27586;51.124;4.182;2022-07-29T14:26:01;0.60;;;0.60;;
41903;SDS011;27586;51.124;4.182;2022-07-29T14:28:27;0.70;;;0.70;;
41903;SDS011;27586;51.124;4.182;2022-07-29T14:30:52;0.90;;;0.70;;
41903;SDS011;27586;51.124;4.182;2022-07-29T14:33:18;0.80;;;0.80;;
41903;SDS011;27586;51.124;4.182;2022-07-29T14:35:45;0.80;;;0.80;;
41903;SDS011;27586;51.124;4.182;2022-07-29T14:38:10;0.88;;;0.88;;
41903;SDS011;27586;51.124;4.182;2022-07-29T14:40:36;0.70;;;0.70;;
41903;SDS011;27586;51.124;4.182;2022-07-29T14:43:02;0.90;;;0.85;;
41903;SDS011;27586;51.124;4.182;2022-07-29T14:45:28;0.80;;;0.80;;
41903;SDS011;27586;51.124;4.182;2022-07-29T14:47:54;0.82;;;0.82;;
41903;SDS011;27586;51.124;4.182;2022-07-29T14:50:20;0.85;;;0.85;;
41903;SDS011;27586;51.124;4.182;2022-07-29T14:52:45;1.05;;;1.05;;
41903;SDS011;27586;51.124;4.182;2022-07-29T14:55:11;0.95;;;0.95;;
41903;SDS011;27586;51.124;4.182;2022-07-29T14:57:37;1.10;;;1.00;;
41903;SDS011;27586;51.124;4.182;2022-07-29T15:00:03;2.67;;;0.90;;
41903;SDS011;27586;51.124;4.182;2022-07-29T15:02:31;1.20;;;1.00;;
41903;SDS011;27586;51.124;4.182;2022-07-29T15:04:58;2.60;;;1.30;;
41903;SDS011;27586;51.124;4.182;2022-07-29T15:07:23;1.13;;;0.90;;
41903;SDS011;27586;51.124;4.182;2022-07-29T15:09:49;1.10;;;1.10;;
41903;SDS011;27586;51.124;4.182;2022-07-29T15:12:15;1.05;;;1.05;;
41903;SDS011;27586;51.124;4.182;2022-07-29T15:14:40;1.75;;;0.80;;
41903;SDS011;27586;51.124;4.182;2022-07-29T15:17:06;0.90;;;0.90;;
41903;SDS011;27586;51.124;4.182;2022-07-29T15:19:32;1.13;;;0.98;;
41903;SDS011;27586;51.124;4.182;2022-07-29T15:21:57;1.00;;;1.00;;
41903;SDS011;27586;51.124;4.182;2022-07-29T15:24:23;0.88;;;0.88;;
41903;SDS011;27586;51.124;4.182;2022-07-29T15:26:49;0.95;;;0.80;;
41903;SDS011;27586;51.124;4.182;2022-07-29T15:29:15;1.08;;;0.90;;
41903;SDS011;27586;51.124;4.182;2022-07-29T15:31:41;1.00;;;0.90;;
41903;SDS011;27586;51.124;4.182;2022-07-29T15:34:07;1.70;;;1.25;;
41903;SDS011;27586;51.124;4.182;2022-07-29T15:36:32;1.25;;;0.90;;
41903;SDS011;27586;51.124;4.182;2022-07-29T15:38:58;0.90;;;0.90;;
41903;SDS011;27586;51.124;4.182;2022-07-29T15:41:24;0.80;;;0.80;;